Whitestone, NY (11357)

11:14 AM EDT on June 30, 2015 (GMT -0400)
Oakland Gardens | | Change Station
CLOSE
Current Station
Personal Weather Station
Location: New York, NY
Elevation: 95 ft
Nearby Weather Stations

Elev 95 ft 40.75 °N, 73.75 °W | Updated 3 minutes ago

Partly Cloudy
Partly Cloudy
82.1 °F
Feels Like 84 °F
N
2.0
Wind Variable Wind from North
Gusts 4.0 mph

Today
High -- | Low -- °F
--% Chance of Precip.
Yesterday
High -- | Low -- °F
Precip. -- in
5:26 AM 8:30 PM
Waxing Gibbous, 97% visible
Pressure 29.97 in
Visibility 10.0 miles
Clouds Few 6000 ft
Scattered Clouds 10000 ft
Heat Index 84 °F
Dew Point 65 °F
Humidity 57%
Rainfall in
Snow Depth Not available.
UV 5 out of 12
Pollen 4.00 out of 12
Air Quality Not available.
Flu Activity Sporadic
METAR KLGA 301351Z 17010KT 10SM FEW060 SCT100 26/13 A2997 RMK AO2 SLP147 T02610133

More Conditions Fewer Conditions

Pressure 29.97 in
Visibility 10.0 miles
Clouds Few 6000 ft
Scattered Clouds 10000 ft
Heat Index 84 °F
Dew Point 65 °F
Humidity 57%
Rainfall in
Snow Depth Not available.
UV 5 out of 12
Pollen 4.00 out of 12
Air Quality Not available.
Flu Activity Sporadic
METAR KLGA 301351Z 17010KT 10SM FEW060 SCT100 26/13 A2997 RMK AO2 SLP147 T02610133

More Conditions Fewer Conditions

10-Day Weather Forecast

×

Almanac

Astronomy

Jun. 30, 2015 Rise Set
Actual Time
Civil Twilight
Nautical Twilight
Astronomical Twilight
Moon
Length of Visible Light
Length of Day
Tomorrow will be .
, % of the Moon is Illuminated

Today's Extremes

State Highs State Lows

Community

WunderPhotos

Upload Photos

1,834,017 photos uploaded!

WunderBlogs® & News

Nearby

Air Quality

  Air Quality AQ Index Pollutant
Not available.

Snow Depth

Station Depth Elevation

Earthquake Activity

City Distance Mag. Time & Date
Minimum magnitude displayed is 2.5.

Coastal Water Temperatures

Place Temperature

Stations

Nearby Weather Stations

Station Location Temp. Windchill Dew Point Humidity Wind Precip. Elev Updated Type